sensor_id;sensor_type;location;lat;lon;timestamp;temperature;humidity
11264;DHT22;5689;48.798;9.070;2022-12-07T00:01:20;3.60;99.90
11264;DHT22;5689;48.798;9.070;2022-12-07T00:03:49;3.50;99.90
11264;DHT22;5689;48.798;9.070;2022-12-07T00:06:18;3.60;99.90
11264;DHT22;5689;48.798;9.070;2022-12-07T00:08:47;3.50;99.90
11264;DHT22;5689;48.798;9.070;2022-12-07T00:11:17;3.60;99.90
11264;DHT22;5689;48.798;9.070;2022-12-07T00:13:47;3.60;99.90
11264;DHT22;5689;48.798;9.070;2022-12-07T00:16:20;3.60;99.90
11264;DHT22;5689;48.798;9.070;2022-12-07T00:18:48;3.60;99.90
11264;DHT22;5689;48.798;9.070;2022-12-07T00:21:18;3.60;99.90
11264;DHT22;5689;48.798;9.070;2022-12-07T00:23:48;3.60;99.90
11264;DHT22;5689;48.798;9.070;2022-12-07T00:26:18;3.70;99.90
11264;DHT22;5689;48.798;9.070;2022-12-07T00:28:49;3.60;99.90
11264;DHT22;5689;48.798;9.070;2022-12-07T00:31:19;3.50;99.90
11264;DHT22;5689;48.798;9.070;2022-12-07T00:33:48;3.50;99.90
11264;DHT22;5689;48.798;9.070;2022-12-07T00:36:18;3.30;99.90
11264;DHT22;5689;48.798;9.070;2022-12-07T00:38:50;3.40;99.90
11264;DHT22;5689;48.798;9.070;2022-12-07T00:41:20;3.30;99.90
11264;DHT22;5689;48.798;9.070;2022-12-07T00:43:50;3.30;99.90
11264;DHT22;5689;48.798;9.070;2022-12-07T00:46:19;3.30;99.90
11264;DHT22;5689;48.798;9.070;2022-12-07T00:48:48;3.30;99.90
11264;DHT22;5689;48.798;9.070;2022-12-07T00:51:18;3.50;99.90
11264;DHT22;5689;48.798;9.070;2022-12-07T00:53:46;3.60;99.90
11264;DHT22;5689;48.798;9.070;2022-12-07T00:56:16;3.80;99.90
11264;DHT22;5689;48.798;9.070;2022-12-07T00:58:52;3.80;99.90
11264;DHT22;5689;48.798;9.070;2022-12-07T01:01:20;3.80;99.90
11264;DHT22;5689;48.798;9.070;2022-12-07T01:03:49;3.80;99.90
11264;DHT22;5689;48.798;9.070;2022-12-07T01:06:18;3.70;99.90
11264;DHT22;5689;48.798;9.070;2022-12-07T01:08:46;3.80;99.90
11264;DHT22;5689;48.798;9.070;2022-12-07T01:11:16;3.90;99.90
11264;DHT22;5689;48.798;9.070;2022-12-07T01:13:45;3.90;99.90
11264;DHT22;5689;48.798;9.070;2022-12-07T01:16:15;3.80;99.90
11264;DHT22;5689;48.798;9.070;2022-12-07T01:18:46;3.90;99.90
11264;DHT22;5689;48.798;9.070;2022-12-07T01:21:16;3.80;99.90
11264;DHT22;5689;48.798;9.070;2022-12-07T01:23:44;3.70;99.90
11264;DHT22;5689;48.798;9.070;2022-12-07T01:26:14;3.80;99.90
11264;DHT22;5689;48.798;9.070;2022-12-07T01:28:43;3.70;99.90
11264;DHT22;5689;48.798;9.070;2022-12-07T01:31:14;3.70;99.90
11264;DHT22;5689;48.798;9.070;2022-12-07T01:33:44;3.70;99.90
11264;DHT22;5689;48.798;9.070;2022-12-07T01:36:14;3.70;99.90
11264;DHT22;5689;48.798;9.070;2022-12-07T01:38:43;3.90;99.90
11264;DHT22;5689;48.798;9.070;2022-12-07T01:41:13;4.00;99.90
11264;DHT22;5689;48.798;9.070;2022-12-07T01:44:09;3.70;99.90
11264;DHT22;5689;48.798;9.070;2022-12-07T01:46:39;3.80;99.90
11264;DHT22;5689;48.798;9.070;2022-12-07T01:49:10;3.90;99.90
11264;DHT22;5689;48.798;9.070;2022-12-07T01:51:41;3.90;99.90
11264;DHT22;5689;48.798;9.070;2022-12-07T01:54:11;3.90;99.90
11264;DHT22;5689;48.798;9.070;2022-12-07T01:56:44;4.00;99.90
11264;DHT22;5689;48.798;9.070;2022-12-07T01:59:13;4.00;99.90
11264;DHT22;5689;48.798;9.070;2022-12-07T02:01:44;4.00;99.90
11264;DHT22;5689;48.798;9.070;2022-12-07T02:04:12;4.00;99.90
11264;DHT22;5689;48.798;9.070;2022-12-07T02:06:41;4.00;99.90
11264;DHT22;5689;48.798;9.070;2022-12-07T02:09:10;3.80;99.90
11264;DHT22;5689;48.798;9.070;2022-12-07T02:11:39;3.90;99.90
11264;DHT22;5689;48.798;9.070;2022-12-07T02:14:08;4.00;99.90
11264;DHT22;5689;48.798;9.070;2022-12-07T02:16:45;4.00;99.90
11264;DHT22;5689;48.798;9.070;2022-12-07T02:19:39;3.90;99.90
11264;DHT22;5689;48.798;9.070;2022-12-07T02:22:28;3.90;99.90
11264;DHT22;5689;48.798;9.070;2022-12-07T02:25:09;3.80;99.90
11264;DHT22;5689;48.798;9.070;2022-12-07T02:27:45;3.70;99.90
11264;DHT22;5689;48.798;9.070;2022-12-07T02:30:17;3.70;99.90
11264;DHT22;5689;48.798;9.070;2022-12-07T02:32:53;3.80;99.90
11264;DHT22;5689;48.798;9.070;2022-12-07T02:35:28;3.80;99.90
11264;DHT22;5689;48.798;9.070;2022-12-07T02:38:03;3.80;99.90
11264;DHT22;5689;48.798;9.070;2022-12-07T02:40:36;3.80;99.90
11264;DHT22;5689;48.798;9.070;2022-12-07T02:43:09;3.80;99.90
11264;DHT22;5689;48.798;9.070;2022-12-07T02:45:42;3.80;99.90
11264;DHT22;5689;48.798;9.070;2022-12-07T02:48:14;3.80;99.90
11264;DHT22;5689;48.798;9.070;2022-12-07T02:50:45;3.80;99.90
11264;DHT22;5689;48.798;9.070;2022-12-07T02:53:31;3.60;99.90
11264;DHT22;5689;48.798;9.070;2022-12-07T02:56:01;3.70;99.90
11264;DHT22;5689;48.798;9.070;2022-12-07T02:58:39;3.80;99.90
11264;DHT22;5689;48.798;9.070;2022-12-07T03:01:21;3.70;99.90
11264;DHT22;5689;48.798;9.070;2022-12-07T03:03:59;3.60;99.90
11264;DHT22;5689;48.798;9.070;2022-12-07T03:06:35;3.60;99.90
11264;DHT22;5689;48.798;9.070;2022-12-07T03:09:12;3.60;99.90
11264;DHT22;5689;48.798;9.070;2022-12-07T03:11:45;3.70;99.90
11264;DHT22;5689;48.798;9.070;2022-12-07T03:14:19;3.60;99.90
11264;DHT22;5689;48.798;9.070;2022-12-07T03:16:57;3.60;99.90
11264;DHT22;5689;48.798;9.070;2022-12-07T03:19:27;3.60;99.90
11264;DHT22;5689;48.798;9.070;2022-12-07T03:21:56;3.60;99.90
11264;DHT22;5689;48.798;9.070;2022-12-07T03:24:27;3.50;99.90
11264;DHT22;5689;48.798;9.070;2022-12-07T03:27:01;3.60;99.90
11264;DHT22;5689;48.798;9.070;2022-12-07T03:29:34;3.60;99.90
11264;DHT22;5689;48.798;9.070;2022-12-07T03:32:07;3.50;99.90
11264;DHT22;5689;48.798;9.070;2022-12-07T03:34:43;3.50;99.90
11264;DHT22;5689;48.798;9.070;2022-12-07T03:37:18;3.50;99.90
11264;DHT22;5689;48.798;9.070;2022-12-07T03:39:57;3.50;99.90
11264;DHT22;5689;48.798;9.070;2022-12-07T03:42:26;3.50;99.90
11264;DHT22;5689;48.798;9.070;2022-12-07T03:44:55;3.50;99.90
11264;DHT22;5689;48.798;9.070;2022-12-07T03:47:28;3.40;99.90
11264;DHT22;5689;48.798;9.070;2022-12-07T03:50:03;3.40;99.90
11264;DHT22;5689;48.798;9.070;2022-12-07T03:52:37;3.40;99.90
11264;DHT22;5689;48.798;9.070;2022-12-07T03:55:10;3.40;99.90
11264;DHT22;5689;48.798;9.070;2022-12-07T03:57:40;3.40;99.90
11264;DHT22;5689;48.798;9.070;2022-12-07T04:00:11;3.30;99.90
11264;DHT22;5689;48.798;9.070;2022-12-07T04:02:41;3.30;99.90
11264;DHT22;5689;48.798;9.070;2022-12-07T04:05:10;3.30;99.90
11264;DHT22;5689;48.798;9.070;2022-12-07T04:07:38;3.30;99.90
11264;DHT22;5689;48.798;9.070;2022-12-07T04:10:07;3.30;99.90
11264;DHT22;5689;48.798;9.070;2022-12-07T04:12:35;3.20;99.90
11264;DHT22;5689;48.798;9.070;2022-12-07T04:15:04;3.20;99.90
11264;DHT22;5689;48.798;9.070;2022-12-07T04:17:32;3.20;99.90
11264;DHT22;5689;48.798;9.070;2022-12-07T04:20:02;3.20;99.90
11264;DHT22;5689;48.798;9.070;2022-12-07T04:22:30;3.20;99.90
11264;DHT22;5689;48.798;9.070;2022-12-07T04:24:58;3.20;99.90
11264;DHT22;5689;48.798;9.070;2022-12-07T04:27:26;3.30;99.90
11264;DHT22;5689;48.798;9.070;2022-12-07T04:29:54;3.30;99.90
11264;DHT22;5689;48.798;9.070;2022-12-07T04:32:23;3.30;99.90
11264;DHT22;5689;48.798;9.070;2022-12-07T04:34:51;3.20;99.90
11264;DHT22;5689;48.798;9.070;2022-12-07T04:37:22;3.20;99.90
11264;DHT22;5689;48.798;9.070;2022-12-07T04:39:50;3.20;99.90
11264;DHT22;5689;48.798;9.070;2022-12-07T04:42:18;3.10;99.90
11264;DHT22;5689;48.798;9.070;2022-12-07T04:44:46;3.00;99.90
11264;DHT22;5689;48.798;9.070;2022-12-07T04:47:14;3.00;99.90
11264;DHT22;5689;48.798;9.070;2022-12-07T04:49:42;2.90;99.90
11264;DHT22;5689;48.798;9.070;2022-12-07T04:52:10;3.00;99.90
11264;DHT22;5689;48.798;9.070;2022-12-07T04:54:40;3.00;99.90
11264;DHT22;5689;48.798;9.070;2022-12-07T04:57:08;2.90;99.90
11264;DHT22;5689;48.798;9.070;2022-12-07T04:59:36;2.90;99.90
11264;DHT22;5689;48.798;9.070;2022-12-07T05:02:06;2.90;99.90
11264;DHT22;5689;48.798;9.070;2022-12-07T05:04:34;3.00;99.90
11264;DHT22;5689;48.798;9.070;2022-12-07T05:07:02;3.00;99.90
11264;DHT22;5689;48.798;9.070;2022-12-07T05:09:30;3.00;99.90
11264;DHT22;5689;48.798;9.070;2022-12-07T05:12:00;3.10;99.90
11264;DHT22;5689;48.798;9.070;2022-12-07T05:14:28;3.00;99.90
11264;DHT22;5689;48.798;9.070;2022-12-07T05:16:56;2.90;99.90
11264;DHT22;5689;48.798;9.070;2022-12-07T05:19:24;2.70;99.90
11264;DHT22;5689;48.798;9.070;2022-12-07T05:21:52;2.70;99.90
11264;DHT22;5689;48.798;9.070;2022-12-07T05:24:20;2.50;99.90
11264;DHT22;5689;48.798;9.070;2022-12-07T05:26:48;2.50;99.90
11264;DHT22;5689;48.798;9.070;2022-12-07T05:29:18;2.20;99.90
11264;DHT22;5689;48.798;9.070;2022-12-07T05:31:46;2.00;99.90
11264;DHT22;5689;48.798;9.070;2022-12-07T05:34:14;1.80;99.90
11264;DHT22;5689;48.798;9.070;2022-12-07T05:36:42;1.70;99.90
11264;DHT22;5689;48.798;9.070;2022-12-07T05:39:10;1.70;99.90
11264;DHT22;5689;48.798;9.070;2022-12-07T05:41:38;1.70;99.90
11264;DHT22;5689;48.798;9.070;2022-12-07T05:44:34;1.60;99.90
11264;DHT22;5689;48.798;9.070;2022-12-07T05:47:02;1.60;99.90
11264;DHT22;5689;48.798;9.070;2022-12-07T05:49:30;1.60;99.90
11264;DHT22;5689;48.798;9.070;2022-12-07T05:51:58;1.60;99.90
11264;DHT22;5689;48.798;9.070;2022-12-07T05:54:26;1.70;99.90
11264;DHT22;5689;48.798;9.070;2022-12-07T05:56:55;1.80;99.90
11264;DHT22;5689;48.798;9.070;2022-12-07T05:59:23;2.00;99.90
11264;DHT22;5689;48.798;9.070;2022-12-07T06:01:53;2.00;99.90
11264;DHT22;5689;48.798;9.070;2022-12-07T06:04:22;2.00;99.90
11264;DHT22;5689;48.798;9.070;2022-12-07T06:06:50;2.10;99.90
11264;DHT22;5689;48.798;9.070;2022-12-07T06:09:20;2.10;99.90
11264;DHT22;5689;48.798;9.070;2022-12-07T06:11:48;2.10;99.90
11264;DHT22;5689;48.798;9.070;2022-12-07T06:14:48;2.20;99.90
11264;DHT22;5689;48.798;9.070;2022-12-07T06:17:17;2.20;99.90
11264;DHT22;5689;48.798;9.070;2022-12-07T06:19:46;2.10;99.90
11264;DHT22;5689;48.798;9.070;2022-12-07T06:22:14;2.30;99.90
11264;DHT22;5689;48.798;9.070;2022-12-07T06:24:42;2.40;99.90
11264;DHT22;5689;48.798;9.070;2022-12-07T06:27:10;2.60;99.90
11264;DHT22;5689;48.798;9.070;2022-12-07T06:29:38;2.60;99.90
11264;DHT22;5689;48.798;9.070;2022-12-07T06:32:06;2.40;99.90
11264;DHT22;5689;48.798;9.070;2022-12-07T06:34:36;2.60;99.90
11264;DHT22;5689;48.798;9.070;2022-12-07T06:37:04;2.50;99.90
11264;DHT22;5689;48.798;9.070;2022-12-07T06:39:32;2.60;99.90
11264;DHT22;5689;48.798;9.070;2022-12-07T06:42:00;2.60;99.90
11264;DHT22;5689;48.798;9.070;2022-12-07T06:44:28;2.70;99.90
11264;DHT22;5689;48.798;9.070;2022-12-07T06:46:57;2.80;99.90
11264;DHT22;5689;48.798;9.070;2022-12-07T06:49:39;2.90;99.90
11264;DHT22;5689;48.798;9.070;2022-12-07T06:52:07;2.80;99.90
11264;DHT22;5689;48.798;9.070;2022-12-07T06:54:35;2.80;99.90
11264;DHT22;5689;48.798;9.070;2022-12-07T06:57:03;2.80;99.90
11264;DHT22;5689;48.798;9.070;2022-12-07T06:59:31;2.70;99.90
11264;DHT22;5689;48.798;9.070;2022-12-07T07:01:59;2.70;99.90
11264;DHT22;5689;48.798;9.070;2022-12-07T07:04:27;2.70;99.90
11264;DHT22;5689;48.798;9.070;2022-12-07T07:06:57;2.60;99.90
11264;DHT22;5689;48.798;9.070;2022-12-07T07:09:25;2.70;99.90
11264;DHT22;5689;48.798;9.070;2022-12-07T07:11:53;2.80;99.90
11264;DHT22;5689;48.798;9.070;2022-12-07T07:14:21;2.80;99.90
11264;DHT22;5689;48.798;9.070;2022-12-07T07:16:49;3.00;99.90
11264;DHT22;5689;48.798;9.070;2022-12-07T07:19:18;3.00;99.90
11264;DHT22;5689;48.798;9.070;2022-12-07T07:21:46;3.00;99.90
11264;DHT22;5689;48.798;9.070;2022-12-07T07:24:15;3.00;99.90
11264;DHT22;5689;48.798;9.070;2022-12-07T07:26:43;3.00;99.90
11264;DHT22;5689;48.798;9.070;2022-12-07T07:29:11;3.00;99.90
11264;DHT22;5689;48.798;9.070;2022-12-07T07:31:39;3.00;99.90
11264;DHT22;5689;48.798;9.070;2022-12-07T07:34:07;3.00;99.90
11264;DHT22;5689;48.798;9.070;2022-12-07T07:36:35;3.10;99.90
11264;DHT22;5689;48.798;9.070;2022-12-07T07:39:03;3.10;99.90
11264;DHT22;5689;48.798;9.070;2022-12-07T07:41:33;3.20;99.90
11264;DHT22;5689;48.798;9.070;2022-12-07T07:44:02;3.20;99.90
11264;DHT22;5689;48.798;9.070;2022-12-07T07:46:30;3.20;99.90
11264;DHT22;5689;48.798;9.070;2022-12-07T07:48:59;3.30;99.90
11264;DHT22;5689;48.798;9.070;2022-12-07T07:51:27;3.20;99.90
11264;DHT22;5689;48.798;9.070;2022-12-07T07:53:55;3.20;99.90
11264;DHT22;5689;48.798;9.070;2022-12-07T07:56:23;3.20;99.90
11264;DHT22;5689;48.798;9.070;2022-12-07T07:58:53;3.30;99.90
11264;DHT22;5689;48.798;9.070;2022-12-07T08:01:21;3.40;99.90
11264;DHT22;5689;48.798;9.070;2022-12-07T08:03:49;3.40;99.90
11264;DHT22;5689;48.798;9.070;2022-12-07T08:06:17;3.40;99.90
11264;DHT22;5689;48.798;9.070;2022-12-07T08:08:45;3.50;99.90
11264;DHT22;5689;48.798;9.070;2022-12-07T08:11:13;3.40;99.90
11264;DHT22;5689;48.798;9.070;2022-12-07T08:13:41;3.50;99.90
11264;DHT22;5689;48.798;9.070;2022-12-07T08:16:11;3.70;99.90
11264;DHT22;5689;48.798;9.070;2022-12-07T08:18:40;3.70;99.90
11264;DHT22;5689;48.798;9.070;2022-12-07T08:21:11;3.80;99.90
11264;DHT22;5689;48.798;9.070;2022-12-07T08:23:40;3.90;99.90
11264;DHT22;5689;48.798;9.070;2022-12-07T08:26:09;3.90;99.90
11264;DHT22;5689;48.798;9.070;2022-12-07T08:28:39;3.90;99.90
11264;DHT22;5689;48.798;9.070;2022-12-07T08:31:10;3.90;99.90
11264;DHT22;5689;48.798;9.070;2022-12-07T08:33:40;4.00;99.90
11264;DHT22;5689;48.798;9.070;2022-12-07T08:36:10;4.10;99.90
11264;DHT22;5689;48.798;9.070;2022-12-07T08:38:39;4.20;99.90
11264;DHT22;5689;48.798;9.070;2022-12-07T08:41:08;4.20;99.90
11264;DHT22;5689;48.798;9.070;2022-12-07T08:43:37;4.40;99.90
11264;DHT22;5689;48.798;9.070;2022-12-07T08:46:09;4.40;99.90
11264;DHT22;5689;48.798;9.070;2022-12-07T08:48:43;4.40;99.90
11264;DHT22;5689;48.798;9.070;2022-12-07T08:51:13;4.30;99.90
11264;DHT22;5689;48.798;9.070;2022-12-07T08:53:42;4.40;99.90
11264;DHT22;5689;48.798;9.070;2022-12-07T08:56:11;4.40;99.90
11264;DHT22;5689;48.798;9.070;2022-12-07T08:58:39;4.40;99.90
11264;DHT22;5689;48.798;9.070;2022-12-07T09:01:08;4.40;99.90
11264;DHT22;5689;48.798;9.070;2022-12-07T09:03:36;4.30;99.90
11264;DHT22;5689;48.798;9.070;2022-12-07T09:06:06;4.40;99.90
11264;DHT22;5689;48.798;9.070;2022-12-07T09:08:38;4.40;99.90
11264;DHT22;5689;48.798;9.070;2022-12-07T09:11:08;4.40;99.90
11264;DHT22;5689;48.798;9.070;2022-12-07T09:13:36;4.60;99.90
11264;DHT22;5689;48.798;9.070;2022-12-07T09:16:04;4.60;99.90
11264;DHT22;5689;48.798;9.070;2022-12-07T09:18:33;4.70;99.90
11264;DHT22;5689;48.798;9.070;2022-12-07T09:21:01;4.70;99.90
11264;DHT22;5689;48.798;9.070;2022-12-07T09:23:30;4.60;99.90
11264;DHT22;5689;48.798;9.070;2022-12-07T09:25:59;4.60;99.90
11264;DHT22;5689;48.798;9.070;2022-12-07T09:28:28;4.80;99.90
11264;DHT22;5689;48.798;9.070;2022-12-07T09:30:57;5.00;99.90
11264;DHT22;5689;48.798;9.070;2022-12-07T09:33:45;4.90;99.90
11264;DHT22;5689;48.798;9.070;2022-12-07T09:36:14;5.10;99.90
11264;DHT22;5689;48.798;9.070;2022-12-07T09:38:43;5.30;99.90
11264;DHT22;5689;48.798;9.070;2022-12-07T09:41:11;5.40;99.90
11264;DHT22;5689;48.798;9.070;2022-12-07T09:43:40;5.50;99.90
11264;DHT22;5689;48.798;9.070;2022-12-07T09:46:10;5.70;99.90
11264;DHT22;5689;48.798;9.070;2022-12-07T09:48:42;5.60;99.90
11264;DHT22;5689;48.798;9.070;2022-12-07T09:51:16;5.60;99.90
11264;DHT22;5689;48.798;9.070;2022-12-07T09:53:50;5.70;99.90
11264;DHT22;5689;48.798;9.070;2022-12-07T09:56:20;5.70;99.90
11264;DHT22;5689;48.798;9.070;2022-12-07T09:58:48;5.30;99.90
11264;DHT22;5689;48.798;9.070;2022-12-07T10:01:18;5.50;99.90
11264;DHT22;5689;48.798;9.070;2022-12-07T10:03:50;5.80;99.90
11264;DHT22;5689;48.798;9.070;2022-12-07T10:06:20;6.00;99.90
11264;DHT22;5689;48.798;9.070;2022-12-07T10:08:49;6.20;99.90
11264;DHT22;5689;48.798;9.070;2022-12-07T10:11:17;6.00;99.90
11264;DHT22;5689;48.798;9.070;2022-12-07T10:13:47;6.10;99.90
11264;DHT22;5689;48.798;9.070;2022-12-07T10:16:34;6.50;99.90
11264;DHT22;5689;48.798;9.070;2022-12-07T10:19:20;6.50;99.90
11264;DHT22;5689;48.798;9.070;2022-12-07T10:22:01;6.40;99.90
11264;DHT22;5689;48.798;9.070;2022-12-07T10:24:31;6.30;99.90
11264;DHT22;5689;48.798;9.070;2022-12-07T10:26:59;6.10;99.90
11264;DHT22;5689;48.798;9.070;2022-12-07T10:29:30;6.10;99.90
11264;DHT22;5689;48.798;9.070;2022-12-07T10:32:02;6.00;99.90
11264;DHT22;5689;48.798;9.070;2022-12-07T10:34:32;5.90;99.90
11264;DHT22;5689;48.798;9.070;2022-12-07T10:37:14;5.80;99.90
11264;DHT22;5689;48.798;9.070;2022-12-07T10:39:45;5.80;99.90
11264;DHT22;5689;48.798;9.070;2022-12-07T10:42:18;5.80;99.90
11264;DHT22;5689;48.798;9.070;2022-12-07T10:44:48;5.70;99.90
11264;DHT22;5689;48.798;9.070;2022-12-07T10:47:31;5.50;99.90
11264;DHT22;5689;48.798;9.070;2022-12-07T10:50:29;5.50;99.90
11264;DHT22;5689;48.798;9.070;2022-12-07T10:53:17;5.70;99.90
11264;DHT22;5689;48.798;9.070;2022-12-07T10:56:09;5.60;99.90
11264;DHT22;5689;48.798;9.070;2022-12-07T10:58:53;5.60;99.90
11264;DHT22;5689;48.798;9.070;2022-12-07T11:01:26;5.70;99.90
11264;DHT22;5689;48.798;9.070;2022-12-07T11:04:16;5.70;99.90
11264;DHT22;5689;48.798;9.070;2022-12-07T11:06:51;5.80;99.90
11264;DHT22;5689;48.798;9.070;2022-12-07T11:09:33;5.90;99.90
11264;DHT22;5689;48.798;9.070;2022-12-07T11:12:35;5.60;99.90
11264;DHT22;5689;48.798;9.070;2022-12-07T11:15:12;5.30;99.90
11264;DHT22;5689;48.798;9.070;2022-12-07T11:17:46;5.00;99.90
11264;DHT22;5689;48.798;9.070;2022-12-07T11:20:29;5.10;99.90
11264;DHT22;5689;48.798;9.070;2022-12-07T11:23:11;5.20;99.90
11264;DHT22;5689;48.798;9.070;2022-12-07T11:25:49;5.10;99.90
11264;DHT22;5689;48.798;9.070;2022-12-07T11:28:34;5.30;99.90
11264;DHT22;5689;48.798;9.070;2022-12-07T11:31:12;5.30;99.90
11264;DHT22;5689;48.798;9.070;2022-12-07T11:33:45;5.10;99.90
11264;DHT22;5689;48.798;9.070;2022-12-07T11:36:30;5.10;99.90
11264;DHT22;5689;48.798;9.070;2022-12-07T11:39:03;5.10;99.90
11264;DHT22;5689;48.798;9.070;2022-12-07T11:41:35;5.00;99.90
11264;DHT22;5689;48.798;9.070;2022-12-07T11:44:08;5.00;99.90
11264;DHT22;5689;48.798;9.070;2022-12-07T11:46:45;4.80;99.90
11264;DHT22;5689;48.798;9.070;2022-12-07T11:49:19;4.80;99.90
11264;DHT22;5689;48.798;9.070;2022-12-07T11:51:50;4.90;99.90
11264;DHT22;5689;48.798;9.070;2022-12-07T11:54:23;5.00;99.90
11264;DHT22;5689;48.798;9.070;2022-12-07T11:56:54;4.90;99.90
11264;DHT22;5689;48.798;9.070;2022-12-07T11:59:29;4.90;99.90
11264;DHT22;5689;48.798;9.070;2022-12-07T12:02:03;4.80;99.90
11264;DHT22;5689;48.798;9.070;2022-12-07T12:04:47;4.70;99.90
11264;DHT22;5689;48.798;9.070;2022-12-07T12:07:21;4.60;99.90
11264;DHT22;5689;48.798;9.070;2022-12-07T12:10:18;4.50;99.90
11264;DHT22;5689;48.798;9.070;2022-12-07T12:13:21;4.50;99.90
11264;DHT22;5689;48.798;9.070;2022-12-07T12:16:47;4.50;99.90
11264;DHT22;5689;48.798;9.070;2022-12-07T12:19:27;4.70;99.90
11264;DHT22;5689;48.798;9.070;2022-12-07T12:22:05;4.50;99.90
11264;DHT22;5689;48.798;9.070;2022-12-07T12:24:38;4.40;99.90
11264;DHT22;5689;48.798;9.070;2022-12-07T12:27:09;4.50;99.90
11264;DHT22;5689;48.798;9.070;2022-12-07T12:29:40;4.60;99.90
11264;DHT22;5689;48.798;9.070;2022-12-07T12:32:17;4.60;99.90
11264;DHT22;5689;48.798;9.070;2022-12-07T12:35:02;4.50;99.90
11264;DHT22;5689;48.798;9.070;2022-12-07T12:37:44;4.70;99.90
11264;DHT22;5689;48.798;9.070;2022-12-07T12:40:39;4.80;99.90
11264;DHT22;5689;48.798;9.070;2022-12-07T12:49:40;4.70;99.90
11264;DHT22;5689;48.798;9.070;2022-12-07T12:53:22;4.70;99.90
11264;DHT22;5689;48.798;9.070;2022-12-07T12:56:28;4.80;99.90
11264;DHT22;5689;48.798;9.070;2022-12-07T12:59:24;4.80;99.90
11264;DHT22;5689;48.798;9.070;2022-12-07T13:01:56;4.70;99.90
11264;DHT22;5689;48.798;9.070;2022-12-07T13:04:28;4.70;99.90
11264;DHT22;5689;48.798;9.070;2022-12-07T13:07:13;5.30;99.90
11264;DHT22;5689;48.798;9.070;2022-12-07T13:10:02;5.00;99.90
11264;DHT22;5689;48.798;9.070;2022-12-07T13:12:31;4.80;99.90
11264;DHT22;5689;48.798;9.070;2022-12-07T13:15:00;5.00;99.90
11264;DHT22;5689;48.798;9.070;2022-12-07T13:18:00;6.00;99.90
11264;DHT22;5689;48.798;9.070;2022-12-07T13:20:50;4.70;99.90
11264;DHT22;5689;48.798;9.070;2022-12-07T13:23:26;4.90;99.90
11264;DHT22;5689;48.798;9.070;2022-12-07T13:26:01;4.90;99.90
11264;DHT22;5689;48.798;9.070;2022-12-07T13:28:36;4.70;99.90
11264;DHT22;5689;48.798;9.070;2022-12-07T13:31:22;4.50;99.90
11264;DHT22;5689;48.798;9.070;2022-12-07T13:33:51;4.80;99.90
11264;DHT22;5689;48.798;9.070;2022-12-07T13:36:22;4.70;99.90
11264;DHT22;5689;48.798;9.070;2022-12-07T13:38:55;4.70;99.90
11264;DHT22;5689;48.798;9.070;2022-12-07T13:41:25;4.80;99.90
11264;DHT22;5689;48.798;9.070;2022-12-07T13:44:00;4.90;99.90
11264;DHT22;5689;48.798;9.070;2022-12-07T13:46:47;5.00;99.90
11264;DHT22;5689;48.798;9.070;2022-12-07T13:49:19;5.00;99.90
11264;DHT22;5689;48.798;9.070;2022-12-07T13:51:48;4.90;99.90
11264;DHT22;5689;48.798;9.070;2022-12-07T13:54:18;4.90;99.90
11264;DHT22;5689;48.798;9.070;2022-12-07T13:56:50;4.80;99.90
11264;DHT22;5689;48.798;9.070;2022-12-07T13:59:20;4.90;99.90
11264;DHT22;5689;48.798;9.070;2022-12-07T14:01:50;5.00;99.90
11264;DHT22;5689;48.798;9.070;2022-12-07T14:04:30;4.80;99.90
11264;DHT22;5689;48.798;9.070;2022-12-07T14:06:59;5.00;99.90
11264;DHT22;5689;48.798;9.070;2022-12-07T14:09:29;5.10;99.90
11264;DHT22;5689;48.798;9.070;2022-12-07T14:11:58;5.20;99.90
11264;DHT22;5689;48.798;9.070;2022-12-07T14:14:29;5.30;99.90
11264;DHT22;5689;48.798;9.070;2022-12-07T14:17:10;5.40;99.90
11264;DHT22;5689;48.798;9.070;2022-12-07T14:19:48;5.40;99.90
11264;DHT22;5689;48.798;9.070;2022-12-07T14:22:26;5.50;99.90
11264;DHT22;5689;48.798;9.070;2022-12-07T14:25:16;5.40;99.90
11264;DHT22;5689;48.798;9.070;2022-12-07T14:27:55;5.30;99.90
11264;DHT22;5689;48.798;9.070;2022-12-07T14:30:26;5.10;99.90
11264;DHT22;5689;48.798;9.070;2022-12-07T14:32:58;4.90;99.90
11264;DHT22;5689;48.798;9.070;2022-12-07T14:35:27;4.70;99.90
11264;DHT22;5689;48.798;9.070;2022-12-07T14:37:55;4.50;99.90
11264;DHT22;5689;48.798;9.070;2022-12-07T14:40:26;4.40;99.90
11264;DHT22;5689;48.798;9.070;2022-12-07T14:42:57;4.40;99.90
11264;DHT22;5689;48.798;9.070;2022-12-07T14:45:26;4.30;99.90
11264;DHT22;5689;48.798;9.070;2022-12-07T14:47:55;4.20;99.90
11264;DHT22;5689;48.798;9.070;2022-12-07T14:50:45;4.10;99.90
11264;DHT22;5689;48.798;9.070;2022-12-07T14:53:40;4.10;99.90
11264;DHT22;5689;48.798;9.070;2022-12-07T14:56:10;4.30;99.90
11264;DHT22;5689;48.798;9.070;2022-12-07T14:58:39;4.40;99.90
11264;DHT22;5689;48.798;9.070;2022-12-07T15:01:07;4.30;99.90
11264;DHT22;5689;48.798;9.070;2022-12-07T15:03:35;4.20;99.90
11264;DHT22;5689;48.798;9.070;2022-12-07T15:06:05;4.20;99.90
11264;DHT22;5689;48.798;9.070;2022-12-07T15:08:34;4.10;99.90
11264;DHT22;5689;48.798;9.070;2022-12-07T15:11:02;4.10;99.90
11264;DHT22;5689;48.798;9.070;2022-12-07T15:13:31;3.90;99.90
11264;DHT22;5689;48.798;9.070;2022-12-07T15:16:19;3.90;99.90
11264;DHT22;5689;48.798;9.070;2022-12-07T15:18:47;4.00;99.90
11264;DHT22;5689;48.798;9.070;2022-12-07T15:21:30;4.10;99.90
11264;DHT22;5689;48.798;9.070;2022-12-07T15:23:58;4.00;99.90
11264;DHT22;5689;48.798;9.070;2022-12-07T15:26:26;4.00;99.90
11264;DHT22;5689;48.798;9.070;2022-12-07T15:28:56;4.00;99.90
11264;DHT22;5689;48.798;9.070;2022-12-07T15:31:24;3.90;99.90
11264;DHT22;5689;48.798;9.070;2022-12-07T15:34:11;3.70;99.90
11264;DHT22;5689;48.798;9.070;2022-12-07T15:36:40;3.60;99.90
11264;DHT22;5689;48.798;9.070;2022-12-07T15:39:08;3.70;99.90
11264;DHT22;5689;48.798;9.070;2022-12-07T15:41:40;3.60;99.90
11264;DHT22;5689;48.798;9.070;2022-12-07T15:44:11;3.60;99.90
11264;DHT22;5689;48.798;9.070;2022-12-07T15:46:57;3.60;99.90
11264;DHT22;5689;48.798;9.070;2022-12-07T15:49:25;3.60;99.90
11264;DHT22;5689;48.798;9.070;2022-12-07T15:51:54;3.60;99.90
11264;DHT22;5689;48.798;9.070;2022-12-07T15:54:24;3.60;99.90
11264;DHT22;5689;48.798;9.070;2022-12-07T15:56:52;3.50;99.90
11264;DHT22;5689;48.798;9.070;2022-12-07T15:59:22;3.60;99.90
11264;DHT22;5689;48.798;9.070;2022-12-07T16:01:50;3.70;99.90
11264;DHT22;5689;48.798;9.070;2022-12-07T16:04:18;3.70;99.90
11264;DHT22;5689;48.798;9.070;2022-12-07T16:06:46;3.70;99.90
11264;DHT22;5689;48.798;9.070;2022-12-07T16:09:14;3.60;99.90
11264;DHT22;5689;48.798;9.070;2022-12-07T16:11:42;3.60;99.90
11264;DHT22;5689;48.798;9.070;2022-12-07T16:14:10;3.60;99.90
11264;DHT22;5689;48.798;9.070;2022-12-07T16:16:40;3.50;99.90
11264;DHT22;5689;48.798;9.070;2022-12-07T16:19:08;3.60;99.90
11264;DHT22;5689;48.798;9.070;2022-12-07T16:21:37;3.60;99.90
11264;DHT22;5689;48.798;9.070;2022-12-07T16:24:07;3.60;99.90
11264;DHT22;5689;48.798;9.070;2022-12-07T16:26:35;3.60;99.90
11264;DHT22;5689;48.798;9.070;2022-12-07T16:29:03;3.30;99.90
11264;DHT22;5689;48.798;9.070;2022-12-07T16:31:31;3.40;99.90
11264;DHT22;5689;48.798;9.070;2022-12-07T16:34:01;3.30;99.90
11264;DHT22;5689;48.798;9.070;2022-12-07T16:36:29;3.20;99.90
11264;DHT22;5689;48.798;9.070;2022-12-07T16:39:17;3.20;99.90
11264;DHT22;5689;48.798;9.070;2022-12-07T16:41:45;3.20;99.90
11264;DHT22;5689;48.798;9.070;2022-12-07T16:44:14;3.20;99.90